createdAt,value
2022-11-05T00:00:18.691Z,8.65
2022-11-05T00:03:04.010Z,8.66
2022-11-05T00:05:49.945Z,8.67
2022-11-05T00:08:34.819Z,8.68
2022-11-05T00:11:01.244Z,8.66
2022-11-05T00:13:46.747Z,8.64
2022-11-05T00:16:31.404Z,8.63
2022-11-05T00:19:06.803Z,8.61
2022-11-05T00:21:53.286Z,8.59
2022-11-05T00:24:38.580Z,8.56
2022-11-05T00:27:04.964Z,8.54
2022-11-05T00:29:31.378Z,8.52
2022-11-05T00:31:57.736Z,8.49
2022-11-05T00:34:24.086Z,8.46
2022-11-05T00:36:50.442Z,8.42
2022-11-05T00:39:16.792Z,8.39
2022-11-05T00:41:43.372Z,8.35
2022-11-05T00:44:28.058Z,8.32
2022-11-05T00:47:14.382Z,8.30
2022-11-05T00:49:40.604Z,8.29
2022-11-05T00:52:25.452Z,8.29
2022-11-05T00:54:51.769Z,8.24
2022-11-05T00:57:18.104Z,8.20
2022-11-05T00:59:44.465Z,8.15
2022-11-05T01:02:10.852Z,8.11
2022-11-05T01:04:37.263Z,8.09
2022-11-05T01:07:03.592Z,8.06
2022-11-05T01:09:29.919Z,8.05
2022-11-05T01:11:56.240Z,8.03
2022-11-05T01:14:22.581Z,8.04
2022-11-05T01:16:48.912Z,8.03
2022-11-05T01:19:15.308Z,8.05
2022-11-05T01:21:41.674Z,8.06
2022-11-05T01:24:08.181Z,8.08
2022-11-05T01:26:34.527Z,8.11
2022-11-05T01:29:00.918Z,8.15
2022-11-05T01:31:28.542Z,8.19
2022-11-05T01:33:55.079Z,8.23
2022-11-05T01:36:21.430Z,8.28
2022-11-05T01:38:47.762Z,8.32
2022-11-05T01:41:14.150Z,8.38
2022-11-05T01:43:57.303Z,8.43
2022-11-05T01:46:25.666Z,8.47
2022-11-05T01:48:57.301Z,8.50
2022-11-05T01:51:28.157Z,8.55
2022-11-05T01:54:00.025Z,8.57
2022-11-05T01:56:35.374Z,8.59
2022-11-05T01:59:25.016Z,8.62
2022-11-05T02:01:51.957Z,8.63
2022-11-05T02:04:27.941Z,8.65
2022-11-05T02:06:54.486Z,8.65
2022-11-05T02:09:27.565Z,8.67
2022-11-05T02:11:54.089Z,8.67
2022-11-05T02:14:20.531Z,8.69
2022-11-05T02:17:00.995Z,8.72
2022-11-05T02:19:48.891Z,8.73
2022-11-05T02:22:31.920Z,8.74
2022-11-05T02:25:26.315Z,8.76
2022-11-05T02:28:16.694Z,8.75
2022-11-05T02:30:52.819Z,8.76
2022-11-05T02:33:41.620Z,8.75
2022-11-05T02:36:32.301Z,8.76
2022-11-05T02:39:10.812Z,8.76
2022-11-05T02:41:40.112Z,8.76
2022-11-05T02:44:20.376Z,8.78
2022-11-05T02:46:52.723Z,8.78
2022-11-05T02:49:29.848Z,8.77
2022-11-05T02:52:06.230Z,8.78
2022-11-05T02:54:38.500Z,8.77
2022-11-05T02:57:06.022Z,8.77
2022-11-05T02:59:32.504Z,8.79
2022-11-05T03:02:01.733Z,8.77
2022-11-05T03:04:29.825Z,8.77
2022-11-05T03:07:23.797Z,8.79
2022-11-05T03:10:05.407Z,8.81
2022-11-05T03:12:42.765Z,8.81
2022-11-05T03:15:19.976Z,8.83
2022-11-05T03:17:56.801Z,8.85
2022-11-05T03:20:34.204Z,8.85
2022-11-05T03:23:14.726Z,8.85
2022-11-05T03:25:49.765Z,8.87
2022-11-05T03:28:19.702Z,8.88
2022-11-05T03:30:50.289Z,8.88
2022-11-05T03:33:24.412Z,8.90
2022-11-05T03:35:55.488Z,8.91
2022-11-05T03:38:29.141Z,8.93
2022-11-05T03:40:59.667Z,8.94
2022-11-05T03:43:32.821Z,8.96
2022-11-05T03:46:04.000Z,8.97
2022-11-05T03:48:31.418Z,8.97
2022-11-05T03:51:06.818Z,8.99
2022-11-05T03:53:41.085Z,9.00
2022-11-05T03:56:18.233Z,9.00
2022-11-05T03:58:46.208Z,8.99
2022-11-05T04:01:12.821Z,8.99
2022-11-05T04:03:39.229Z,8.99
2022-11-05T04:06:26.295Z,8.99
2022-11-05T04:09:11.150Z,8.99
2022-11-05T04:11:56.528Z,8.98
2022-11-05T04:14:23.012Z,8.96
2022-11-05T04:17:08.585Z,8.97
2022-11-05T04:20:03.292Z,8.97
2022-11-05T04:22:53.245Z,8.97
2022-11-05T04:25:21.674Z,8.95
2022-11-05T04:27:49.020Z,8.94
2022-11-05T04:30:20.273Z,8.94
2022-11-05T04:32:56.552Z,8.93
2022-11-05T04:35:23.196Z,8.92
2022-11-05T04:37:49.837Z,8.91
2022-11-05T04:40:16.183Z,8.91
2022-11-05T04:42:42.506Z,8.91
2022-11-05T04:45:09.023Z,8.88
2022-11-05T04:47:35.358Z,8.87
2022-11-05T04:50:01.800Z,8.87
2022-11-05T04:52:28.205Z,8.87
2022-11-05T04:54:54.534Z,8.86
2022-11-05T04:57:20.861Z,8.87
2022-11-05T04:59:50.378Z,8.87
2022-11-05T05:02:16.814Z,8.85
2022-11-05T05:04:43.252Z,8.85
2022-11-05T05:07:09.591Z,8.86
2022-11-05T05:09:35.954Z,8.86
2022-11-05T05:12:02.673Z,8.85
2022-11-05T05:14:29.005Z,8.86
2022-11-05T05:16:55.337Z,8.86
2022-11-05T05:19:21.728Z,8.86
2022-11-05T05:21:48.088Z,8.85
2022-11-05T05:24:17.322Z,8.86
2022-11-05T05:26:46.396Z,8.85
2022-11-05T05:29:13.086Z,8.84
2022-11-05T05:31:40.294Z,8.81
2022-11-05T05:34:09.946Z,8.79
2022-11-05T05:36:36.269Z,8.77
2022-11-05T05:39:06.344Z,8.76
2022-11-05T05:41:33.009Z,8.75
2022-11-05T05:43:59.393Z,8.74
2022-11-05T05:46:25.716Z,8.73
2022-11-05T05:48:52.445Z,8.72
2022-11-05T05:51:19.650Z,8.71
2022-11-05T05:53:46.069Z,8.69
2022-11-05T05:56:15.034Z,8.69
2022-11-05T05:58:42.015Z,8.67
2022-11-05T06:01:17.226Z,8.68
2022-11-05T06:03:45.195Z,8.68
2022-11-05T06:06:15.661Z,8.68
2022-11-05T06:08:42.632Z,8.68
2022-11-05T06:11:09.522Z,8.69
2022-11-05T06:13:36.439Z,8.69
2022-11-05T06:16:08.407Z,8.70
2022-11-05T06:18:35.942Z,8.70
2022-11-05T06:21:03.879Z,8.70
2022-11-05T06:23:32.058Z,8.70
2022-11-05T06:26:03.283Z,8.71
2022-11-05T06:28:30.074Z,8.70
2022-11-05T06:30:57.698Z,8.70
2022-11-05T06:33:24.387Z,8.72
2022-11-05T06:35:50.732Z,8.71
2022-11-05T06:38:17.126Z,8.72
2022-11-05T06:40:43.567Z,8.72
2022-11-05T06:43:10.394Z,8.73
2022-11-05T06:45:36.961Z,8.74
2022-11-05T06:48:03.466Z,8.74
2022-11-05T06:50:29.908Z,8.75
2022-11-05T06:52:56.806Z,8.76
2022-11-05T06:55:24.429Z,8.77
2022-11-05T06:57:51.205Z,8.77
2022-11-05T07:00:18.170Z,8.78
2022-11-05T07:02:45.263Z,8.79
2022-11-05T07:05:12.586Z,8.81
2022-11-05T07:07:39.951Z,8.83
2022-11-05T07:10:08.636Z,8.86
2022-11-05T07:12:34.997Z,8.88
2022-11-05T07:15:01.606Z,8.90
2022-11-05T07:17:27.925Z,8.93
2022-11-05T07:19:54.264Z,8.97
2022-11-05T07:22:20.621Z,9.00
2022-11-05T07:24:47.945Z,9.04
2022-11-05T07:27:14.296Z,9.06
2022-11-05T07:29:40.646Z,9.09
2022-11-05T07:32:07.102Z,9.11
2022-11-05T07:34:33.456Z,9.15
2022-11-05T07:36:59.850Z,9.17
2022-11-05T07:39:26.188Z,9.20
2022-11-05T07:41:54.784Z,9.22
2022-11-05T07:44:21.787Z,9.25
2022-11-05T07:46:48.100Z,9.26
2022-11-05T07:49:14.462Z,9.28
2022-11-05T07:51:40.884Z,9.30
2022-11-05T07:54:07.334Z,9.32
2022-11-05T07:56:33.740Z,9.34
2022-11-05T07:59:00.411Z,9.37
2022-11-05T08:01:27.190Z,9.39
2022-11-05T08:03:53.796Z,9.42
2022-11-05T08:06:20.136Z,9.44
2022-11-05T08:08:47.605Z,9.47
2022-11-05T08:11:13.971Z,9.50
2022-11-05T08:13:40.378Z,9.52
2022-11-05T08:16:07.704Z,9.56
2022-11-05T08:18:34.125Z,9.59
2022-11-05T08:21:02.741Z,9.62
2022-11-05T08:23:30.635Z,9.66
2022-11-05T08:25:57.895Z,9.72
2022-11-05T08:28:26.217Z,9.77
2022-11-05T08:30:54.411Z,9.81
2022-11-05T08:33:21.902Z,9.85
2022-11-05T08:35:48.452Z,9.88
2022-11-05T08:38:18.234Z,9.94
2022-11-05T08:40:46.596Z,9.98
2022-11-05T08:43:14.474Z,10.02
2022-11-05T08:45:41.334Z,10.05
2022-11-05T08:48:10.395Z,10.10
2022-11-05T08:50:37.783Z,10.16
2022-11-05T08:53:05.498Z,10.19
2022-11-05T08:55:32.304Z,10.24
2022-11-05T08:58:00.881Z,10.31
2022-11-05T09:00:29.235Z,10.35
2022-11-05T09:02:58.906Z,10.41
2022-11-05T09:05:25.259Z,10.45
2022-11-05T09:07:53.172Z,10.50
2022-11-05T09:10:23.491Z,10.58
2022-11-05T09:12:49.932Z,10.63
2022-11-05T09:15:16.403Z,10.69
2022-11-05T09:17:42.738Z,10.75
2022-11-05T09:20:14.762Z,10.82
2022-11-05T09:22:43.401Z,10.89
2022-11-05T09:25:10.247Z,10.95
2022-11-05T09:27:36.579Z,11.04
2022-11-05T09:30:03.620Z,11.11
2022-11-05T09:32:33.646Z,11.21
2022-11-05T09:35:01.092Z,11.28
2022-11-05T09:37:28.379Z,11.36
2022-11-05T09:39:54.981Z,11.43
2022-11-05T09:42:25.228Z,11.49
2022-11-05T09:45:05.254Z,11.57
2022-11-05T09:47:45.812Z,11.63
2022-11-05T09:50:16.553Z,11.71
2022-11-05T09:52:43.181Z,11.76
2022-11-05T09:55:20.773Z,11.82
2022-11-05T09:57:53.275Z,11.89
2022-11-05T10:00:20.044Z,11.92
2022-11-05T10:02:57.342Z,11.96
2022-11-05T10:05:25.947Z,11.98
2022-11-05T10:08:24.399Z,12.03
2022-11-05T10:10:56.353Z,12.07
2022-11-05T10:13:35.933Z,12.11
2022-11-05T10:16:24.481Z,12.15
2022-11-05T10:19:37.460Z,12.22
2022-11-05T10:22:16.394Z,12.26
2022-11-05T10:24:47.025Z,12.29
2022-11-05T10:27:27.856Z,12.34
2022-11-05T10:29:54.350Z,12.35
2022-11-05T10:32:30.083Z,12.40
2022-11-05T10:34:59.992Z,12.44
2022-11-05T10:37:27.646Z,12.48
2022-11-05T10:39:55.080Z,12.50
2022-11-05T10:42:30.447Z,12.54
2022-11-05T10:45:05.726Z,12.58
2022-11-05T10:48:16.926Z,12.63
2022-11-05T10:50:44.021Z,12.67
2022-11-05T10:53:16.740Z,12.73
2022-11-05T10:55:50.936Z,12.79
2022-11-05T10:58:17.205Z,12.82
2022-11-05T11:01:00.007Z,12.87
2022-11-05T11:03:34.637Z,12.93
2022-11-05T11:06:04.572Z,12.97
2022-11-05T11:08:35.371Z,13.02
2022-11-05T11:11:12.018Z,13.09
2022-11-05T11:13:56.719Z,13.14
2022-11-05T11:16:27.015Z,13.20
2022-11-05T11:19:00.716Z,13.26
2022-11-05T11:21:28.681Z,13.30
2022-11-05T11:24:06.916Z,13.38
2022-11-05T11:26:37.854Z,13.46
2022-11-05T11:29:22.835Z,13.54
2022-11-05T11:31:49.251Z,13.61
2022-11-05T11:34:24.693Z,13.70
2022-11-05T11:36:55.328Z,13.79
2022-11-05T11:39:25.489Z,13.87
2022-11-05T11:41:55.685Z,13.93
2022-11-05T11:44:39.530Z,14.01
2022-11-05T11:47:12.069Z,14.07
2022-11-05T11:49:41.527Z,14.14
2022-11-05T11:52:15.764Z,14.20
2022-11-05T11:54:42.298Z,14.25
2022-11-05T11:57:25.707Z,14.33
2022-11-05T12:00:08.236Z,14.38
2022-11-05T12:03:14.672Z,14.45
2022-11-05T12:05:48.089Z,14.53
2022-11-05T12:08:42.887Z,14.59
2022-11-05T12:11:29.806Z,14.66
2022-11-05T12:14:12.872Z,14.72
2022-11-05T12:16:52.578Z,14.79
2022-11-05T12:19:46.957Z,14.82
2022-11-05T12:22:36.520Z,14.87
2022-11-05T12:25:24.558Z,14.92
2022-11-05T12:28:29.030Z,15.00
2022-11-05T12:31:22.931Z,15.06
2022-11-05T12:34:04.491Z,15.14
2022-11-05T12:36:30.780Z,15.20
2022-11-05T12:39:00.015Z,15.25
2022-11-05T12:41:43.518Z,15.31
2022-11-05T12:44:54.442Z,15.37
2022-11-05T12:47:49.232Z,15.44
2022-11-05T12:50:26.426Z,15.45
2022-11-05T12:53:22.308Z,15.44
2022-11-05T12:55:50.208Z,15.41
2022-11-05T12:58:26.801Z,15.37
2022-11-05T13:01:00.293Z,15.33
2022-11-05T13:03:42.392Z,15.30
2022-11-05T13:06:24.168Z,15.28
2022-11-05T13:09:02.206Z,15.24
2022-11-05T13:11:44.451Z,15.24
2022-11-05T13:14:18.214Z,15.25
2022-11-05T13:16:50.888Z,15.24
2022-11-05T13:19:23.915Z,15.26
2022-11-05T13:21:56.600Z,15.28
2022-11-05T13:24:37.864Z,15.31
2022-11-05T13:27:52.698Z,15.32
2022-11-05T13:30:26.106Z,15.32
2022-11-05T13:33:01.931Z,15.29
2022-11-05T13:35:45.078Z,15.25
2022-11-05T13:38:40.788Z,15.21
2022-11-05T13:41:36.150Z,15.16
2022-11-05T13:44:12.098Z,15.14
2022-11-05T13:46:57.149Z,15.17
2022-11-05T13:50:06.729Z,15.14
2022-11-05T13:53:14.659Z,15.12
2022-11-05T13:55:52.474Z,15.09
2022-11-05T13:58:48.050Z,15.07
2022-11-05T14:01:21.795Z,15.05
2022-11-05T14:03:51.207Z,15.04
2022-11-05T14:06:37.850Z,15.02
2022-11-05T14:09:20.102Z,15.00
2022-11-05T14:11:53.784Z,14.98
2022-11-05T14:14:25.852Z,14.96
2022-11-05T14:17:12.961Z,14.92
2022-11-05T14:20:07.046Z,14.90
2022-11-05T14:22:33.377Z,14.87
2022-11-05T14:25:18.363Z,14.85
2022-11-05T14:27:49.227Z,14.84
2022-11-05T14:30:45.316Z,14.85
2022-11-05T14:33:25.711Z,14.84
2022-11-05T14:35:53.854Z,14.83
2022-11-05T14:38:23.430Z,14.82
2022-11-05T14:40:59.101Z,14.80
2022-11-05T14:43:27.842Z,14.78
2022-11-05T14:46:00.731Z,14.75
2022-11-05T14:48:42.084Z,14.71
2022-11-05T14:51:24.937Z,14.68
2022-11-05T14:54:03.058Z,14.65
2022-11-05T14:56:42.356Z,14.61
2022-11-05T14:59:24.105Z,14.58
2022-11-05T15:01:50.514Z,14.53
2022-11-05T15:04:33.326Z,14.50
2022-11-05T15:07:02.497Z,14.45
2022-11-05T15:09:50.957Z,14.40
2022-11-05T15:12:19.787Z,14.35
2022-11-05T15:14:58.325Z,14.31
2022-11-05T15:17:40.816Z,14.27
2022-11-05T15:20:17.701Z,14.21
2022-11-05T15:22:48.970Z,14.16
2022-11-05T15:25:46.701Z,14.12
2022-11-05T15:28:36.965Z,14.05
2022-11-05T15:31:12.533Z,13.99
2022-11-05T15:33:47.640Z,13.95
2022-11-05T15:36:23.979Z,13.90
2022-11-05T15:39:08.484Z,13.86
2022-11-05T15:41:38.065Z,13.81
2022-11-05T15:44:04.540Z,13.77
2022-11-05T15:46:31.239Z,13.72
2022-11-05T15:49:03.728Z,13.68
2022-11-05T15:51:30.280Z,13.63
2022-11-05T15:56:55.754Z,13.56
2022-11-05T15:59:24.370Z,13.52
2022-11-05T16:02:05.074Z,13.49
2022-11-05T16:04:34.433Z,13.46
2022-11-05T16:07:08.955Z,13.42
2022-11-05T16:09:39.903Z,13.39
2022-11-05T16:12:27.296Z,13.37
2022-11-05T16:15:04.305Z,13.36
2022-11-05T16:17:44.559Z,13.32
2022-11-05T16:20:32.124Z,13.29
2022-11-05T16:23:01.087Z,13.26
2022-11-05T16:25:37.576Z,13.23
2022-11-05T16:28:06.711Z,13.20
2022-11-05T16:30:33.150Z,13.16
2022-11-05T16:33:04.776Z,13.14
2022-11-05T16:35:31.385Z,13.11
2022-11-05T16:38:01.161Z,13.11
2022-11-05T16:40:27.534Z,13.08
2022-11-05T16:42:54.523Z,13.06
2022-11-05T16:45:24.074Z,13.05
2022-11-05T16:47:50.941Z,13.01
2022-11-05T16:50:24.536Z,13.00
2022-11-05T16:52:51.216Z,12.96
2022-11-05T16:55:19.022Z,12.94
2022-11-05T16:57:49.182Z,12.92
2022-11-05T17:00:17.891Z,12.88
2022-11-05T17:02:45.140Z,12.85
2022-11-05T17:05:26.828Z,12.83
2022-11-05T17:07:54.111Z,12.79
2022-11-05T17:10:21.793Z,12.76
2022-11-05T17:12:48.585Z,12.73
2022-11-05T17:15:22.692Z,12.73
2022-11-05T17:17:49.776Z,12.70
2022-11-05T17:20:39.864Z,12.70
2022-11-05T17:23:12.431Z,12.68
2022-11-05T17:25:45.819Z,12.68
2022-11-05T17:28:13.387Z,12.66
2022-11-05T17:30:41.648Z,12.67
2022-11-05T17:33:09.319Z,12.65
2022-11-05T17:35:38.281Z,12.67
2022-11-05T17:38:04.838Z,12.66
2022-11-05T17:40:33.481Z,12.66
2022-11-05T17:42:59.817Z,12.67
2022-11-05T17:45:26.132Z,12.67
2022-11-05T17:47:52.650Z,12.67
2022-11-05T17:50:19.375Z,12.68
2022-11-05T17:52:46.045Z,12.67
2022-11-05T17:55:17.197Z,12.68
2022-11-05T17:57:46.073Z,12.69
2022-11-05T18:00:14.617Z,12.68
2022-11-05T18:02:41.096Z,12.68
2022-11-05T18:05:08.014Z,12.67
2022-11-05T18:07:34.396Z,12.67
2022-11-05T18:10:00.764Z,12.65
2022-11-05T18:12:27.141Z,12.64
2022-11-05T18:14:53.469Z,12.63
2022-11-05T18:17:19.820Z,12.62
2022-11-05T18:19:46.183Z,12.61
2022-11-05T18:22:12.529Z,12.60
2022-11-05T18:24:38.866Z,12.61
2022-11-05T18:27:05.222Z,12.59
2022-11-05T18:29:31.601Z,12.57
2022-11-05T18:31:58.023Z,12.56
2022-11-05T18:34:24.450Z,12.57
2022-11-05T18:36:56.008Z,12.55
2022-11-05T18:39:23.163Z,12.54
2022-11-05T18:41:49.544Z,12.53
2022-11-05T18:44:16.668Z,12.51
2022-11-05T18:46:57.601Z,12.50
2022-11-05T18:49:25.407Z,12.48
2022-11-05T18:51:51.744Z,12.47
2022-11-05T18:54:18.108Z,12.44
2022-11-05T18:56:47.291Z,12.42
2022-11-05T18:59:44.661Z,12.41
2022-11-05T19:02:03.613Z,12.41
2022-11-05T19:04:30.552Z,12.38
2022-11-05T19:07:00.199Z,12.36
2022-11-05T19:09:30.720Z,12.34
2022-11-05T19:11:57.109Z,12.33
2022-11-05T19:14:23.779Z,12.30
2022-11-05T19:16:50.137Z,12.30
2022-11-05T19:19:16.537Z,12.30
2022-11-05T19:21:42.880Z,12.29
2022-11-05T19:24:10.243Z,12.30
2022-11-05T19:26:36.630Z,12.32
2022-11-05T19:29:03.659Z,12.34
2022-11-05T19:31:31.387Z,12.35
2022-11-05T19:33:58.192Z,12.36
2022-11-05T19:36:25.281Z,12.36
2022-11-05T19:38:59.908Z,12.38
2022-11-05T19:41:26.826Z,12.39
2022-11-05T19:43:54.829Z,12.39
2022-11-05T19:46:22.929Z,12.40
2022-11-05T19:48:49.780Z,12.40
2022-11-05T19:51:22.261Z,12.42
2022-11-05T19:53:51.245Z,12.41
2022-11-05T19:56:20.383Z,12.43
2022-11-05T19:58:47.006Z,12.42
2022-11-05T20:01:15.549Z,12.44
2022-11-05T20:03:42.119Z,12.44
2022-11-05T20:06:11.688Z,12.45
2022-11-05T20:08:53.425Z,12.46
2022-11-05T20:11:25.580Z,12.47
2022-11-05T20:13:52.134Z,12.46
2022-11-05T20:16:24.584Z,12.46
2022-11-05T20:18:51.324Z,12.44
2022-11-05T20:21:18.694Z,12.42
2022-11-05T20:23:45.034Z,12.40
2022-11-05T20:26:12.511Z,12.39
2022-11-05T20:28:40.358Z,12.39
2022-11-05T20:31:17.679Z,12.39
2022-11-05T20:33:45.265Z,12.38
2022-11-05T20:36:16.990Z,12.41
2022-11-05T20:38:47.156Z,12.40
2022-11-05T20:41:13.635Z,12.40
2022-11-05T20:43:41.018Z,12.42
2022-11-05T20:46:09.301Z,12.43
2022-11-05T20:48:35.981Z,12.43
2022-11-05T20:51:07.818Z,12.43
2022-11-05T20:53:35.381Z,12.44
2022-11-05T20:56:07.453Z,12.44
2022-11-05T20:58:35.360Z,12.44
2022-11-05T21:01:02.084Z,12.44
2022-11-05T21:03:28.550Z,12.43
2022-11-05T21:05:59.744Z,12.42
2022-11-05T21:08:27.274Z,12.41
2022-11-05T21:10:54.668Z,12.39
2022-11-05T21:13:21.904Z,12.37
2022-11-05T21:15:51.380Z,12.36
2022-11-05T21:18:19.335Z,12.34
2022-11-05T21:20:46.793Z,12.32
2022-11-05T21:23:13.926Z,12.29
2022-11-05T21:25:43.855Z,12.26
2022-11-05T21:28:11.981Z,12.25
2022-11-05T21:30:41.824Z,12.25
2022-11-05T21:33:08.809Z,12.23
2022-11-05T21:35:39.257Z,12.24
2022-11-05T21:38:05.604Z,12.23
2022-11-05T21:40:32.665Z,12.23
2022-11-05T21:42:59.010Z,12.22
2022-11-05T21:45:25.949Z,12.23
2022-11-05T21:47:52.401Z,12.23
2022-11-05T21:50:21.939Z,12.23
2022-11-05T21:53:07.234Z,12.24
2022-11-05T21:55:52.189Z,12.25
2022-11-05T21:58:37.485Z,12.26
2022-11-05T22:01:03.947Z,12.27
2022-11-05T22:03:30.291Z,12.25
2022-11-05T22:05:57.049Z,12.27
2022-11-05T22:08:23.409Z,12.27
2022-11-05T22:10:49.749Z,12.27
2022-11-05T22:13:16.716Z,12.27
2022-11-05T22:15:43.041Z,12.27
2022-11-05T22:18:09.604Z,12.27
2022-11-05T22:20:39.174Z,12.29
2022-11-05T22:23:10.837Z,12.28
2022-11-05T22:25:37.946Z,12.29
2022-11-05T22:28:04.494Z,12.30
2022-11-05T22:30:34.483Z,12.32
2022-11-05T22:33:01.365Z,12.32
2022-11-05T22:35:28.089Z,12.32
2022-11-05T22:37:54.501Z,12.33
2022-11-05T22:40:23.804Z,12.32
2022-11-05T22:42:50.535Z,12.32
2022-11-05T22:45:16.904Z,12.32
2022-11-05T22:47:43.232Z,12.32
2022-11-05T22:50:09.808Z,12.32
2022-11-05T22:52:36.146Z,12.31
2022-11-05T22:55:04.860Z,12.30
2022-11-05T22:57:31.199Z,12.29
2022-11-05T22:59:57.506Z,12.29
2022-11-05T23:02:24.166Z,12.29
2022-11-05T23:04:53.843Z,12.29
2022-11-05T23:07:39.031Z,12.28
2022-11-05T23:10:24.162Z,12.27
2022-11-05T23:12:50.641Z,12.26
2022-11-05T23:15:35.370Z,12.26
2022-11-05T23:18:20.652Z,12.25
2022-11-05T23:21:05.322Z,12.23
2022-11-05T23:23:50.216Z,12.24
2022-11-05T23:26:35.477Z,12.22
2022-11-05T23:29:01.888Z,12.21
2022-11-05T23:31:47.109Z,12.18
2022-11-05T23:34:13.451Z,12.18
2022-11-05T23:36:58.441Z,12.16
2022-11-05T23:39:24.785Z,12.16
2022-11-05T23:42:10.162Z,12.15
2022-11-05T23:44:55.095Z,12.17
2022-11-05T23:47:39.692Z,12.17
2022-11-05T23:50:06.164Z,12.18
2022-11-05T23:52:32.688Z,12.18
2022-11-05T23:54:59.050Z,12.20
2022-11-05T23:57:25.380Z,12.19
2022-11-05T23:59:51.756Z,12.20
